createdAt,value
2022-12-14T00:01:07.334Z,14.50
2022-12-14T00:02:10.255Z,13.27
2022-12-14T00:03:14.665Z,14.43
2022-12-14T00:04:18.192Z,13.00
2022-12-14T00:05:20.076Z,12.82
2022-12-14T00:06:25.439Z,13.32
2022-12-14T00:07:28.895Z,17.13
2022-12-14T00:08:36.751Z,11.10
2022-12-14T00:09:41.789Z,12.90
2022-12-14T00:10:45.559Z,10.18
2022-12-14T00:11:47.580Z,10.07
2022-12-14T00:12:50.674Z,12.35
2022-12-14T00:13:53.893Z,15.82
2022-12-14T00:14:57.111Z,12.38
2022-12-14T00:15:59.047Z,12.38
2022-12-14T00:17:01.907Z,12.82
2022-12-14T00:18:04.348Z,12.95
2022-12-14T00:19:08.590Z,10.75
2022-12-14T00:20:11.400Z,14.60
2022-12-14T00:21:15.686Z,11.32
2022-12-14T00:22:18.690Z,12.95
2022-12-14T00:23:21.612Z,18.45
2022-12-14T00:24:24.484Z,12.60
2022-12-14T00:25:26.335Z,11.00
2022-12-14T00:26:31.366Z,11.73
2022-12-14T00:27:34.975Z,9.25
2022-12-14T00:28:38.484Z,11.13
2022-12-14T00:29:41.370Z,14.45
2022-12-14T00:30:43.284Z,11.48
2022-12-14T00:31:48.624Z,12.40
2022-12-14T00:32:51.511Z,12.70
2022-12-14T00:33:55.388Z,12.25
2022-12-14T00:35:01.458Z,15.70
2022-12-14T00:36:06.086Z,11.98
2022-12-14T00:37:07.988Z,13.13
2022-12-14T00:38:10.873Z,12.90
2022-12-14T00:39:12.741Z,12.20
2022-12-14T00:40:15.693Z,14.20
2022-12-14T00:41:17.741Z,13.20
2022-12-14T00:42:20.661Z,13.63
2022-12-14T00:43:23.493Z,13.02
2022-12-14T00:44:26.403Z,15.75
2022-12-14T00:45:28.330Z,12.95
2022-12-14T00:46:31.239Z,16.88
2022-12-14T00:47:38.984Z,14.80
2022-12-14T00:48:43.790Z,14.30
2022-12-14T00:49:45.646Z,12.13
2022-12-14T00:50:54.663Z,13.18
2022-12-14T00:51:56.523Z,12.40
2022-12-14T00:52:59.415Z,11.93
2022-12-14T00:54:01.479Z,11.13
2022-12-14T00:55:04.592Z,10.82
2022-12-14T00:56:08.274Z,18.80
2022-12-14T00:57:11.570Z,12.80
2022-12-14T00:58:15.216Z,11.70
2022-12-14T00:59:22.895Z,12.52
2022-12-14T01:00:27.626Z,13.52
2022-12-14T01:01:31.686Z,10.27
2022-12-14T01:02:33.808Z,11.77
2022-12-14T01:03:36.913Z,13.30
2022-12-14T01:04:38.841Z,11.55
2022-12-14T01:05:41.896Z,12.40
2022-12-14T01:06:54.770Z,9.32
2022-12-14T01:07:56.678Z,12.40
2022-12-14T01:08:59.530Z,12.65
2022-12-14T01:10:01.430Z,13.32
2022-12-14T01:11:06.404Z,13.73
2022-12-14T01:12:08.459Z,14.75
2022-12-14T01:13:11.632Z,13.88
2022-12-14T01:14:16.216Z,12.60
2022-12-14T01:15:19.541Z,13.35
2022-12-14T01:16:21.685Z,10.90
2022-12-14T01:17:24.594Z,12.85
2022-12-14T01:18:26.494Z,13.63
2022-12-14T01:19:29.416Z,14.32
2022-12-14T01:20:32.008Z,9.88
2022-12-14T01:21:35.747Z,11.02
2022-12-14T01:22:39.243Z,15.63
2022-12-14T01:23:43.035Z,14.07
2022-12-14T01:24:45.101Z,15.23
2022-12-14T01:25:48.865Z,15.90
2022-12-14T01:26:51.970Z,13.07
2022-12-14T01:27:53.913Z,13.80
2022-12-14T01:28:58.799Z,13.13
2022-12-14T01:30:00.763Z,12.27
2022-12-14T01:31:09.946Z,11.60
2022-12-14T01:32:11.907Z,13.25
2022-12-14T01:33:14.767Z,13.82
2022-12-14T01:34:18.418Z,12.50
2022-12-14T01:35:20.278Z,13.90
2022-12-14T01:36:25.240Z,13.75
2022-12-14T01:37:28.804Z,16.80
2022-12-14T01:38:33.185Z,15.57
2022-12-14T01:39:35.165Z,13.23
2022-12-14T01:40:38.099Z,13.00
2022-12-14T01:41:41.418Z,12.95
2022-12-14T01:42:44.326Z,11.82
2022-12-14T01:43:48.888Z,16.70
2022-12-14T01:44:58.047Z,12.38
2022-12-14T01:45:59.969Z,14.27
2022-12-14T01:47:12.141Z,13.25
2022-12-14T01:48:15.609Z,12.57
2022-12-14T01:49:23.191Z,14.10
2022-12-14T01:50:31.254Z,16.60
2022-12-14T01:51:34.880Z,14.13
2022-12-14T01:52:41.434Z,15.05
2022-12-14T01:53:45.852Z,15.30
2022-12-14T01:54:53.808Z,15.63
2022-12-14T01:55:57.738Z,15.95
2022-12-14T01:57:00.165Z,15.23
2022-12-14T01:58:07.226Z,12.13
2022-12-14T01:59:13.241Z,17.50
2022-12-14T02:00:17.623Z,12.85
2022-12-14T02:01:22.624Z,13.35
2022-12-14T02:02:27.409Z,12.98
2022-12-14T02:03:33.594Z,17.48
2022-12-14T02:04:42.398Z,14.65
2022-12-14T02:05:49.571Z,15.20
2022-12-14T02:06:59.439Z,13.70
2022-12-14T02:08:04.618Z,12.93
2022-12-14T02:09:11.128Z,15.65
2022-12-14T02:10:14.178Z,12.57
2022-12-14T02:11:26.710Z,14.05
2022-12-14T02:12:34.252Z,10.82
2022-12-14T02:13:40.697Z,12.70
2022-12-14T02:14:44.374Z,16.15
2022-12-14T02:15:47.362Z,18.15
2022-12-14T02:16:52.078Z,14.95
2022-12-14T02:17:54.234Z,12.60
2022-12-14T02:18:57.123Z,13.65
2022-12-14T02:19:59.198Z,15.13
2022-12-14T02:21:19.399Z,15.35
2022-12-14T02:23:00.459Z,12.60
2022-12-14T02:24:32.087Z,12.30
2022-12-14T02:25:57.896Z,14.05
2022-12-14T02:27:28.563Z,11.68
2022-12-14T02:28:54.420Z,13.57
2022-12-14T02:30:08.264Z,12.90
2022-12-14T02:31:15.786Z,11.25
2022-12-14T02:32:31.722Z,12.85
2022-12-14T02:33:46.395Z,12.45
2022-12-14T02:34:58.178Z,14.75
2022-12-14T02:36:04.427Z,13.27
2022-12-14T02:37:16.474Z,15.52
2022-12-14T02:38:33.728Z,13.93
2022-12-14T02:39:44.679Z,12.18
2022-12-14T02:40:57.305Z,14.73
2022-12-14T02:42:05.820Z,13.00
2022-12-14T02:43:19.977Z,13.90
2022-12-14T02:44:32.131Z,17.40
2022-12-14T02:45:43.441Z,15.82
2022-12-14T02:46:52.900Z,12.77
2022-12-14T02:48:02.348Z,12.85
2022-12-14T02:49:10.531Z,14.00
2022-12-14T02:50:20.809Z,12.43
2022-12-14T02:51:26.122Z,11.55
2022-12-14T02:52:38.404Z,12.95
2022-12-14T02:53:45.055Z,11.63
2022-12-14T02:54:56.225Z,13.95
2022-12-14T02:56:03.854Z,13.25
2022-12-14T02:57:11.807Z,14.75
2022-12-14T02:58:18.972Z,16.88
2022-12-14T02:59:23.259Z,14.60
2022-12-14T03:00:28.937Z,12.77
2022-12-14T03:01:36.315Z,13.18
2022-12-14T03:02:43.056Z,14.15
2022-12-14T03:03:46.723Z,14.55
2022-12-14T03:04:49.618Z,22.17
2022-12-14T03:05:59.899Z,16.10
2022-12-14T03:07:22.071Z,13.20
2022-12-14T03:08:26.738Z,13.35
2022-12-14T03:09:30.528Z,15.73
2022-12-14T03:10:39.994Z,13.48
2022-12-14T03:11:49.551Z,18.35
2022-12-14T03:13:01.784Z,13.38
2022-12-14T03:14:11.408Z,12.35
2022-12-14T03:15:18.365Z,14.52
2022-12-14T03:16:26.041Z,14.23
2022-12-14T03:17:33.101Z,13.32
2022-12-14T03:18:40.270Z,13.90
2022-12-14T03:19:46.010Z,17.63
2022-12-14T03:20:56.477Z,17.13
2022-12-14T03:22:02.523Z,16.67
2022-12-14T03:23:09.308Z,12.18
2022-12-14T03:24:13.911Z,15.38
2022-12-14T03:25:23.303Z,11.32
2022-12-14T03:26:29.153Z,15.85
2022-12-14T03:27:35.612Z,12.40
2022-12-14T03:28:45.708Z,15.18
2022-12-14T03:29:50.492Z,13.63
2022-12-14T03:31:00.962Z,12.80
2022-12-14T03:32:15.448Z,12.50
2022-12-14T03:33:24.427Z,12.60
2022-12-14T03:34:32.416Z,13.77
2022-12-14T03:35:39.330Z,14.32
2022-12-14T03:36:45.080Z,14.52
2022-12-14T03:37:53.427Z,15.63
2022-12-14T03:39:00.247Z,15.98
2022-12-14T03:40:02.627Z,16.30
2022-12-14T03:41:15.153Z,14.15
2022-12-14T03:42:22.655Z,12.27
2022-12-14T03:43:33.862Z,16.10
2022-12-14T03:44:48.857Z,12.55
2022-12-14T03:45:59.679Z,16.55
2022-12-14T03:47:16.303Z,18.55
2022-12-14T03:48:31.300Z,12.00
2022-12-14T03:49:49.218Z,12.50
2022-12-14T03:51:00.599Z,17.15
2022-12-14T03:52:10.164Z,13.07
2022-12-14T03:53:16.144Z,18.45
2022-12-14T03:54:23.615Z,15.15
2022-12-14T03:55:32.963Z,14.10
2022-12-14T03:56:41.327Z,18.40
2022-12-14T03:58:00.625Z,17.25
2022-12-14T03:59:10.263Z,11.82
2022-12-14T04:00:17.872Z,11.95
2022-12-14T04:01:32.594Z,13.02
2022-12-14T04:02:41.024Z,15.70
2022-12-14T04:03:52.353Z,17.27
2022-12-14T04:04:59.256Z,18.15
2022-12-14T04:06:07.049Z,13.10
2022-12-14T04:07:13.269Z,14.50
2022-12-14T04:08:23.999Z,14.75
2022-12-14T04:09:35.160Z,12.80
2022-12-14T04:11:00.055Z,15.30
2022-12-14T04:12:26.433Z,14.93
2022-12-14T04:13:49.305Z,11.63
2022-12-14T04:15:22.444Z,13.07
2022-12-14T04:16:48.794Z,15.38
2022-12-14T04:18:12.072Z,12.35
2022-12-14T04:19:20.943Z,13.43
2022-12-14T04:20:26.511Z,11.60
2022-12-14T04:21:36.980Z,12.25
2022-12-14T04:22:43.945Z,14.05
2022-12-14T04:24:10.575Z,13.55
2022-12-14T04:25:47.361Z,13.07
2022-12-14T04:26:56.082Z,14.52
2022-12-14T04:28:04.459Z,14.43
2022-12-14T04:29:29.014Z,19.08
2022-12-14T04:30:34.410Z,13.20
2022-12-14T04:31:40.704Z,14.27
2022-12-14T04:32:48.423Z,15.82
2022-12-14T04:33:54.500Z,15.43
2022-12-14T04:35:05.310Z,15.25
2022-12-14T04:36:07.743Z,14.45
2022-12-14T04:37:15.074Z,17.60
2022-12-14T04:38:22.283Z,13.50
2022-12-14T04:39:30.252Z,14.50
2022-12-14T04:40:36.564Z,14.95
2022-12-14T04:41:43.054Z,14.95
2022-12-14T04:42:50.260Z,12.27
2022-12-14T04:43:56.021Z,16.30
2022-12-14T04:45:05.520Z,15.57
2022-12-14T04:46:11.689Z,16.38
2022-12-14T04:47:18.302Z,15.38
2022-12-14T04:48:27.724Z,15.88
2022-12-14T04:49:36.922Z,13.90
2022-12-14T04:50:46.222Z,13.32
2022-12-14T04:51:54.715Z,12.15
2022-12-14T04:53:03.585Z,14.82
2022-12-14T04:54:12.171Z,16.88
2022-12-14T04:55:21.827Z,16.60
2022-12-14T04:56:31.752Z,13.57
2022-12-14T04:57:40.704Z,13.55
2022-12-14T04:58:44.181Z,15.20
2022-12-14T04:59:46.999Z,13.00
2022-12-14T05:01:09.723Z,17.27
2022-12-14T05:02:22.499Z,16.25
2022-12-14T05:03:30.091Z,14.13
2022-12-14T05:04:54.901Z,14.15
2022-12-14T05:06:08.481Z,13.63
2022-12-14T05:07:20.976Z,18.83
2022-12-14T05:08:40.821Z,19.42
2022-12-14T05:09:54.979Z,14.23
2022-12-14T05:11:39.615Z,13.57
2022-12-14T05:12:40.562Z,13.98
2022-12-14T05:13:48.884Z,14.80
2022-12-14T05:14:56.807Z,15.10
2022-12-14T05:15:59.480Z,14.80
2022-12-14T05:17:09.020Z,14.63
2022-12-14T05:18:12.652Z,17.15
2022-12-14T05:19:15.208Z,14.68
2022-12-14T05:20:20.119Z,15.30
2022-12-14T05:21:41.662Z,15.63
2022-12-14T05:22:44.628Z,12.02
2022-12-14T05:23:46.656Z,16.83
2022-12-14T05:24:49.659Z,14.10
2022-12-14T05:25:52.676Z,18.52
2022-12-14T05:26:54.573Z,16.33
2022-12-14T05:27:57.533Z,14.77
2022-12-14T05:28:59.508Z,17.73
2022-12-14T05:30:02.508Z,13.82
2022-12-14T05:31:05.615Z,16.83
2022-12-14T05:32:10.920Z,19.45
2022-12-14T05:33:17.621Z,15.63
2022-12-14T05:34:20.614Z,17.23
2022-12-14T05:35:22.608Z,18.02
2022-12-14T05:36:27.039Z,15.75
2022-12-14T05:37:29.944Z,17.42
2022-12-14T05:38:31.932Z,16.20
2022-12-14T05:39:34.943Z,14.35
2022-12-14T05:40:36.993Z,14.13
2022-12-14T05:41:39.914Z,18.15
2022-12-14T05:42:46.112Z,14.65
2022-12-14T05:43:50.686Z,23.55
2022-12-14T05:44:53.687Z,13.27
2022-12-14T05:45:59.091Z,17.35
2022-12-14T05:47:02.317Z,14.27
2022-12-14T05:48:04.837Z,13.85
2022-12-14T05:49:07.969Z,15.07
2022-12-14T05:50:10.247Z,18.73
2022-12-14T05:51:14.547Z,18.77
2022-12-14T05:52:19.248Z,13.07
2022-12-14T05:53:21.198Z,14.73
2022-12-14T05:54:24.091Z,18.17
2022-12-14T05:55:26.012Z,20.63
2022-12-14T05:56:28.904Z,15.35
2022-12-14T05:57:31.275Z,15.75
2022-12-14T05:58:35.111Z,16.00
2022-12-14T05:59:38.315Z,16.67
2022-12-14T06:00:40.320Z,15.60
2022-12-14T06:01:43.443Z,20.10
2022-12-14T06:02:45.453Z,16.35
2022-12-14T06:03:48.960Z,23.45
2022-12-14T06:04:51.873Z,16.33
2022-12-14T06:05:53.871Z,22.42
2022-12-14T06:06:56.771Z,21.35
2022-12-14T06:08:00.118Z,15.23
2022-12-14T06:09:03.042Z,15.00
2022-12-14T06:10:05.434Z,17.48
2022-12-14T06:11:10.269Z,14.80
2022-12-14T06:12:12.182Z,21.40
2022-12-14T06:13:15.153Z,16.17
2022-12-14T06:14:18.629Z,17.52
2022-12-14T06:15:20.621Z,19.23
2022-12-14T06:16:25.443Z,13.93
2022-12-14T06:17:27.362Z,15.32
2022-12-14T06:18:30.344Z,17.42
2022-12-14T06:19:33.433Z,17.20
2022-12-14T06:20:35.712Z,14.60
2022-12-14T06:21:40.598Z,14.13
2022-12-14T06:22:47.411Z,13.63
2022-12-14T06:23:52.579Z,15.35
2022-12-14T06:24:54.928Z,15.82
2022-12-14T06:25:58.166Z,17.52
2022-12-14T06:27:01.096Z,11.55
2022-12-14T06:28:03.084Z,17.67
2022-12-14T06:29:05.988Z,15.13
2022-12-14T06:30:09.482Z,17.85
2022-12-14T06:31:16.741Z,17.08
2022-12-14T06:32:19.874Z,15.38
2022-12-14T06:33:21.804Z,13.90
2022-12-14T06:34:28.429Z,15.80
2022-12-14T06:35:30.568Z,16.60
2022-12-14T06:36:34.986Z,16.75
2022-12-14T06:37:36.886Z,21.42
2022-12-14T06:38:39.773Z,14.35
2022-12-14T06:39:43.119Z,14.27
2022-12-14T06:40:46.679Z,14.73
2022-12-14T06:41:50.787Z,18.33
2022-12-14T06:42:52.645Z,16.20
2022-12-14T06:43:55.541Z,14.60
2022-12-14T06:44:57.442Z,18.10
2022-12-14T06:46:00.524Z,18.92
2022-12-14T06:47:02.695Z,15.20
2022-12-14T06:48:06.438Z,14.55
2022-12-14T06:49:08.396Z,14.00
2022-12-14T06:50:11.386Z,16.83
2022-12-14T06:51:13.243Z,16.52
2022-12-14T06:52:16.099Z,14.93
2022-12-14T06:53:19.024Z,17.80
2022-12-14T06:54:20.988Z,18.10
2022-12-14T06:55:26.246Z,17.42
2022-12-14T06:56:28.281Z,19.52
2022-12-14T06:57:31.183Z,16.88
2022-12-14T06:58:33.216Z,16.80
2022-12-14T06:59:36.095Z,17.98
2022-12-14T07:00:38.936Z,18.45
2022-12-14T07:01:42.598Z,18.92
2022-12-14T07:02:44.667Z,15.57
2022-12-14T07:03:49.273Z,14.80
2022-12-14T07:04:52.288Z,18.90
2022-12-14T07:05:56.386Z,17.23
2022-12-14T07:06:59.350Z,20.15
2022-12-14T07:08:01.344Z,16.10
2022-12-14T07:09:06.050Z,17.05
2022-12-14T07:10:09.595Z,14.32
2022-12-14T07:11:15.722Z,15.55
2022-12-14T07:12:17.897Z,16.52
2022-12-14T07:13:21.156Z,15.35
2022-12-14T07:14:23.952Z,16.27
2022-12-14T07:15:26.844Z,15.40
2022-12-14T07:16:29.393Z,18.75
2022-12-14T07:17:32.347Z,18.73
2022-12-14T07:18:34.542Z,21.17
2022-12-14T07:19:37.742Z,15.52
2022-12-14T07:20:39.705Z,20.58
2022-12-14T07:21:42.546Z,15.70
2022-12-14T07:22:44.907Z,17.60
2022-12-14T07:23:52.793Z,19.45
2022-12-14T07:24:54.738Z,20.70
2022-12-14T07:26:02.287Z,17.20
2022-12-14T07:27:06.974Z,18.60
2022-12-14T07:28:08.835Z,16.77
2022-12-14T07:29:12.495Z,13.45
2022-12-14T07:30:14.656Z,15.20
2022-12-14T07:31:19.781Z,15.85
2022-12-14T07:32:22.017Z,18.35
2022-12-14T07:33:25.536Z,14.48
2022-12-14T07:34:28.174Z,21.50
2022-12-14T07:35:31.088Z,16.35
2022-12-14T07:36:34.061Z,16.92
2022-12-14T07:37:36.031Z,16.27
2022-12-14T07:38:40.885Z,16.00
2022-12-14T07:39:43.803Z,17.38
2022-12-14T07:40:45.732Z,12.80
2022-12-14T07:41:50.514Z,16.70
2022-12-14T07:42:58.406Z,21.90
2022-12-14T07:44:01.882Z,18.90
2022-12-14T07:45:05.348Z,13.85
2022-12-14T07:46:10.302Z,14.85
2022-12-14T07:47:16.540Z,16.10
2022-12-14T07:48:18.750Z,17.60
2022-12-14T07:49:21.813Z,17.50
2022-12-14T07:50:24.715Z,15.05
2022-12-14T07:51:29.092Z,16.83
2022-12-14T07:52:37.248Z,18.63
2022-12-14T07:53:41.648Z,17.13
2022-12-14T07:54:44.543Z,15.82
2022-12-14T07:55:47.544Z,18.55
2022-12-14T07:56:50.921Z,17.65
2022-12-14T07:57:52.812Z,19.60
2022-12-14T07:58:57.921Z,15.85
2022-12-14T08:00:00.978Z,18.00
2022-12-14T08:01:16.922Z,19.52
2022-12-14T08:02:20.192Z,16.88
2022-12-14T08:03:22.467Z,15.70
2022-12-14T08:04:25.486Z,17.65
2022-12-14T08:05:29.630Z,17.30
2022-12-14T08:06:32.957Z,13.95
2022-12-14T08:07:34.945Z,15.15
2022-12-14T08:08:38.110Z,18.95
2022-12-14T08:09:40.961Z,15.68
2022-12-14T08:10:42.874Z,15.90
2022-12-14T08:11:45.881Z,21.42
2022-12-14T08:12:49.902Z,19.90
2022-12-14T08:13:54.338Z,16.13
2022-12-14T08:14:58.534Z,19.52
2022-12-14T08:16:03.858Z,17.92
2022-12-14T08:17:06.835Z,21.92
2022-12-14T08:18:08.762Z,17.38
2022-12-14T08:19:12.943Z,21.55
2022-12-14T08:20:14.910Z,18.58
2022-12-14T08:21:20.943Z,16.95
2022-12-14T08:22:23.878Z,15.68
2022-12-14T08:23:25.821Z,16.00
2022-12-14T08:24:28.751Z,20.10
2022-12-14T08:25:30.725Z,18.88
2022-12-14T08:26:35.993Z,20.25
2022-12-14T08:27:39.052Z,23.52
2022-12-14T08:28:41.952Z,17.30
2022-12-14T08:29:44.882Z,21.90
2022-12-14T08:30:49.444Z,19.30
2022-12-14T08:31:53.046Z,20.20
2022-12-14T08:32:55.818Z,26.02
2022-12-14T08:34:00.170Z,19.48
2022-12-14T08:35:02.288Z,21.35
2022-12-14T08:36:10.219Z,21.27
2022-12-14T08:37:13.202Z,20.30
2022-12-14T08:38:15.564Z,21.15
2022-12-14T08:39:18.586Z,24.20
2022-12-14T08:40:21.395Z,21.98
2022-12-14T08:41:25.482Z,27.92
2022-12-14T08:42:31.330Z,21.45
2022-12-14T08:43:33.794Z,18.67
2022-12-14T08:44:36.786Z,18.92
2022-12-14T08:45:38.990Z,18.25
2022-12-14T08:46:43.333Z,18.90
2022-12-14T08:47:46.799Z,20.70
2022-12-14T08:48:52.435Z,19.25
2022-12-14T08:49:55.415Z,19.15
2022-12-14T08:51:03.408Z,20.95
2022-12-14T08:52:06.511Z,16.38
2022-12-14T08:53:08.891Z,17.95
2022-12-14T08:54:12.871Z,20.92
2022-12-14T08:55:16.072Z,23.88
2022-12-14T08:56:21.808Z,19.67
2022-12-14T08:57:24.624Z,21.65
2022-12-14T08:58:27.054Z,20.40
2022-12-14T08:59:59.391Z,25.83
2022-12-14T09:01:01.630Z,21.90
2022-12-14T09:02:06.071Z,21.25
2022-12-14T09:03:08.218Z,18.77
2022-12-14T09:04:11.271Z,18.50
2022-12-14T09:05:13.165Z,17.52
2022-12-14T09:06:19.335Z,15.82
2022-12-14T09:07:22.283Z,20.63
2022-12-14T09:08:24.147Z,21.00
2022-12-14T09:09:27.103Z,20.67
2022-12-14T09:10:29.156Z,22.65
2022-12-14T09:11:32.777Z,20.58
2022-12-14T09:12:36.201Z,17.58
2022-12-14T09:13:39.200Z,15.63
2022-12-14T09:14:46.437Z,22.70
2022-12-14T09:15:58.916Z,18.38
2022-12-14T09:17:02.617Z,18.92
2022-12-14T09:18:07.208Z,19.23
2022-12-14T09:19:10.196Z,19.33
2022-12-14T09:20:13.726Z,18.65
2022-12-14T09:21:17.958Z,19.90
2022-12-14T09:22:21.734Z,20.00
2022-12-14T09:23:25.860Z,20.45
2022-12-14T09:24:28.996Z,17.55
2022-12-14T09:25:31.892Z,18.05
2022-12-14T09:26:34.809Z,20.70
2022-12-14T09:27:37.748Z,22.30
2022-12-14T09:28:41.491Z,21.95
2022-12-14T09:29:44.649Z,17.75
2022-12-14T09:30:46.605Z,23.77
2022-12-14T09:31:49.476Z,20.33
2022-12-14T09:32:51.370Z,20.15
2022-12-14T09:33:56.803Z,23.50
2022-12-14T09:35:00.499Z,20.35
2022-12-14T09:36:05.772Z,20.48
2022-12-14T09:37:08.648Z,20.48
2022-12-14T09:38:10.623Z,19.45
2022-12-14T09:39:15.031Z,19.42
2022-12-14T09:40:17.200Z,19.88
2022-12-14T09:41:31.215Z,21.92
2022-12-14T09:42:50.510Z,18.73
2022-12-14T09:44:01.957Z,20.80
2022-12-14T09:45:15.003Z,17.42
2022-12-14T09:46:32.639Z,21.08
2022-12-14T09:47:43.179Z,15.02
2022-12-14T09:48:46.179Z,19.83
2022-12-14T09:49:55.167Z,23.50
2022-12-14T09:50:58.439Z,23.75
2022-12-14T09:52:03.806Z,22.65
2022-12-14T09:53:13.611Z,23.20
2022-12-14T09:54:19.598Z,23.33
2022-12-14T09:55:26.790Z,22.05
2022-12-14T09:56:28.851Z,19.58
2022-12-14T09:57:35.645Z,21.25
2022-12-14T09:58:39.369Z,20.13
2022-12-14T09:59:41.409Z,17.05
2022-12-14T10:00:53.287Z,26.38
2022-12-14T10:03:41.440Z,29.45
2022-12-14T10:04:58.620Z,20.08
2022-12-14T10:06:21.246Z,21.27
2022-12-14T10:07:35.581Z,19.77
2022-12-14T10:08:47.060Z,21.20
2022-12-14T10:10:01.790Z,18.88
2022-12-14T10:11:11.439Z,19.98
2022-12-14T10:12:33.963Z,25.98
2022-12-14T10:13:52.049Z,21.92
2022-12-14T10:15:11.752Z,21.17
2022-12-14T10:16:23.218Z,21.27
2022-12-14T10:17:39.741Z,22.23
2022-12-14T10:19:00.587Z,25.23
2022-12-14T10:20:17.098Z,13.48
2022-12-14T10:21:22.959Z,16.30
2022-12-14T10:22:32.417Z,18.85
2022-12-14T10:23:35.693Z,19.55
2022-12-14T10:24:43.608Z,22.88
2022-12-14T10:25:49.364Z,24.60
2022-12-14T10:26:54.001Z,20.40
2022-12-14T10:28:15.762Z,21.85
2022-12-14T10:29:27.722Z,20.42
2022-12-14T10:30:30.151Z,24.15
2022-12-14T10:31:40.628Z,23.40
2022-12-14T10:32:52.280Z,20.08
2022-12-14T10:34:05.499Z,22.65
2022-12-14T10:35:17.166Z,20.77
2022-12-14T10:36:26.344Z,23.70
2022-12-14T10:37:36.761Z,25.98
2022-12-14T10:38:49.321Z,23.20
2022-12-14T10:40:11.362Z,21.35
2022-12-14T10:41:26.293Z,25.95
2022-12-14T10:42:37.979Z,20.83
2022-12-14T10:43:49.232Z,22.88
2022-12-14T10:45:31.736Z,22.88
2022-12-14T10:46:36.478Z,20.73
2022-12-14T10:47:43.779Z,19.88
2022-12-14T10:48:56.126Z,22.95
2022-12-14T10:50:06.840Z,24.33
2022-12-14T10:51:13.919Z,20.60
2022-12-14T10:52:22.791Z,20.02
2022-12-14T10:53:35.721Z,21.05
2022-12-14T10:54:47.224Z,22.83
2022-12-14T10:55:54.437Z,21.40
2022-12-14T10:56:57.475Z,20.33
2022-12-14T10:58:01.465Z,19.00
2022-12-14T10:59:26.765Z,21.67
2022-12-14T11:00:29.816Z,20.92
2022-12-14T11:01:31.875Z,24.10
2022-12-14T11:02:39.921Z,20.95
2022-12-14T11:03:43.998Z,23.42
2022-12-14T11:04:51.264Z,22.00
2022-12-14T11:06:01.683Z,21.48
2022-12-14T11:07:08.486Z,19.63
2022-12-14T11:08:31.795Z,22.05
2022-12-14T11:09:37.600Z,26.80
2022-12-14T11:10:41.001Z,24.63
2022-12-14T11:11:43.081Z,24.75
2022-12-14T11:12:58.658Z,18.83
2022-12-14T11:14:09.321Z,20.88
2022-12-14T11:15:24.568Z,20.95
2022-12-14T11:16:37.364Z,19.27
2022-12-14T11:17:42.534Z,20.20
2022-12-14T11:18:46.559Z,22.00
2022-12-14T11:20:05.094Z,18.98
2022-12-14T11:21:07.967Z,17.52
2022-12-14T11:22:20.306Z,21.17
2022-12-14T11:23:27.704Z,19.33
2022-12-14T11:24:30.821Z,21.05
2022-12-14T11:25:39.300Z,21.33
2022-12-14T11:26:44.189Z,19.63
2022-12-14T11:27:46.144Z,20.83
2022-12-14T11:28:55.762Z,25.05
2022-12-14T11:29:59.082Z,20.92
2022-12-14T11:31:05.181Z,24.08
2022-12-14T11:32:19.323Z,22.75
2022-12-14T11:33:22.862Z,16.08
2022-12-14T11:34:32.348Z,23.67
2022-12-14T11:35:35.957Z,19.63
2022-12-14T11:36:41.108Z,22.30
2022-12-14T11:37:43.334Z,22.52
2022-12-14T11:38:56.075Z,23.02
2022-12-14T11:40:00.713Z,21.60
2022-12-14T11:41:10.939Z,18.90
2022-12-14T11:42:18.927Z,17.63
2022-12-14T11:43:27.300Z,20.38
2022-12-14T11:44:33.271Z,23.83
2022-12-14T11:45:37.768Z,22.73
2022-12-14T11:46:45.945Z,20.60
2022-12-14T11:48:12.338Z,23.70
2022-12-14T11:49:25.100Z,20.65
2022-12-14T11:50:28.340Z,27.23
2022-12-14T11:51:31.183Z,23.92
2022-12-14T11:52:42.968Z,20.05
2022-12-14T11:54:02.621Z,21.27
2022-12-14T11:55:13.389Z,21.15
2022-12-14T11:56:19.532Z,23.52
2022-12-14T11:57:29.117Z,19.52
2022-12-14T11:58:33.732Z,25.15
2022-12-14T11:59:42.706Z,23.83
2022-12-14T12:00:49.197Z,22.83
2022-12-14T12:01:52.348Z,21.23
2022-12-14T12:03:01.908Z,19.80
2022-12-14T12:04:05.317Z,22.25
2022-12-14T12:05:11.660Z,19.85
2022-12-14T12:06:19.729Z,20.73
2022-12-14T12:07:26.422Z,19.77
2022-12-14T12:08:33.360Z,20.63
2022-12-14T12:09:36.013Z,23.13
2022-12-14T12:10:43.337Z,19.00
2022-12-14T12:11:47.658Z,26.08
2022-12-14T12:12:54.561Z,23.85
2022-12-14T12:14:01.564Z,25.50
2022-12-14T12:15:05.695Z,20.42
2022-12-14T12:16:17.100Z,26.50
2022-12-14T12:17:20.617Z,21.30
2022-12-14T12:18:28.386Z,20.15
2022-12-14T12:19:38.590Z,22.17
2022-12-14T12:20:49.450Z,23.58
2022-12-14T12:21:55.661Z,20.55
2022-12-14T12:23:03.008Z,22.30
2022-12-14T12:24:13.792Z,20.92
2022-12-14T12:25:29.637Z,19.10
2022-12-14T12:26:39.183Z,17.40
2022-12-14T12:27:42.756Z,19.25
2022-12-14T12:28:52.226Z,24.02
2022-12-14T12:29:57.673Z,19.63
2022-12-14T12:31:10.352Z,22.05
2022-12-14T12:32:19.780Z,20.13
2022-12-14T12:33:29.500Z,19.13
2022-12-14T12:34:36.209Z,25.08
2022-12-14T12:35:45.906Z,20.50
2022-12-14T12:37:24.213Z,20.73
2022-12-14T12:38:21.302Z,23.90
2022-12-14T12:39:26.146Z,21.15
2022-12-14T12:40:30.977Z,21.33
2022-12-14T12:41:50.369Z,20.00
2022-12-14T12:42:59.950Z,22.60
2022-12-14T12:44:17.633Z,18.65
2022-12-14T12:45:26.349Z,20.27
2022-12-14T12:46:32.399Z,21.15
2022-12-14T12:47:47.243Z,22.50
2022-12-14T12:48:53.085Z,18.42
2022-12-14T12:49:59.575Z,19.02
2022-12-14T12:51:07.365Z,21.48
2022-12-14T12:52:19.505Z,21.27
2022-12-14T12:53:28.208Z,18.10
2022-12-14T12:54:54.082Z,18.25
2022-12-14T12:56:05.186Z,22.08
2022-12-14T12:57:12.888Z,15.57
2022-12-14T12:58:21.135Z,16.27
2022-12-14T12:59:31.592Z,18.83
2022-12-14T13:00:35.387Z,18.85
2022-12-14T13:01:41.944Z,19.45
2022-12-14T13:02:50.280Z,18.80
2022-12-14T13:03:58.528Z,20.42
2022-12-14T13:05:22.331Z,17.45
2022-12-14T13:06:31.722Z,19.02
2022-12-14T13:07:40.097Z,19.00
2022-12-14T13:08:45.246Z,14.10
2022-12-14T13:10:01.873Z,17.25
2022-12-14T13:11:26.175Z,17.75
2022-12-14T13:12:36.411Z,17.30
2022-12-14T13:13:45.890Z,18.75
2022-12-14T13:14:50.592Z,17.25
2022-12-14T13:15:57.138Z,13.70
2022-12-14T13:17:04.412Z,13.02
2022-12-14T13:18:40.803Z,18.80
2022-12-14T13:19:51.356Z,13.50
2022-12-14T13:20:55.168Z,20.08
2022-12-14T13:22:04.941Z,18.40
2022-12-14T13:23:36.486Z,16.20
2022-12-14T13:24:35.575Z,15.23
2022-12-14T13:25:51.665Z,18.35
2022-12-14T13:27:18.182Z,16.55
2022-12-14T13:28:51.940Z,11.88
2022-12-14T13:30:10.754Z,14.07
2022-12-14T13:31:24.624Z,16.25
2022-12-14T13:32:44.749Z,14.68
2022-12-14T13:34:13.804Z,14.73
2022-12-14T13:35:37.425Z,19.63
2022-12-14T13:36:56.011Z,12.82
2022-12-14T13:38:15.735Z,17.00
2022-12-14T13:39:40.575Z,12.48
2022-12-14T13:41:20.789Z,15.00
2022-12-14T13:42:34.618Z,12.23
2022-12-14T13:44:01.935Z,15.23
2022-12-14T13:45:07.001Z,14.75
2022-12-14T13:46:21.281Z,14.50
2022-12-14T13:47:29.772Z,17.05
2022-12-14T13:48:37.585Z,14.00
2022-12-14T13:49:40.616Z,16.80
2022-12-14T13:50:52.999Z,16.17
2022-12-14T13:52:01.236Z,16.25
2022-12-14T13:53:07.396Z,17.60
2022-12-14T13:54:22.748Z,17.10
2022-12-14T13:55:35.128Z,16.52
2022-12-14T13:56:40.567Z,17.00
2022-12-14T13:57:42.818Z,18.55
2022-12-14T13:58:47.929Z,17.92
2022-12-14T13:59:53.647Z,16.80
2022-12-14T14:01:00.144Z,15.27
2022-12-14T14:02:04.990Z,19.05
2022-12-14T14:03:09.064Z,17.40
2022-12-14T14:04:21.853Z,18.10
2022-12-14T14:05:46.818Z,15.90
2022-12-14T14:06:50.975Z,17.98
2022-12-14T14:07:58.394Z,16.25
2022-12-14T14:09:39.900Z,18.52
2022-12-14T14:10:42.811Z,15.27
2022-12-14T14:11:56.384Z,18.88
2022-12-14T14:12:59.613Z,17.58
2022-12-14T14:14:16.553Z,18.35
2022-12-14T14:16:26.275Z,19.58
2022-12-14T14:17:23.234Z,18.70
2022-12-14T14:18:28.306Z,23.40
2022-12-14T14:19:39.309Z,16.40
2022-12-14T14:20:43.097Z,17.17
2022-12-14T14:23:37.992Z,17.13
2022-12-14T14:24:56.674Z,18.30
2022-12-14T14:26:31.197Z,18.02
2022-12-14T14:27:38.626Z,16.00
2022-12-14T14:29:24.221Z,20.35
2022-12-14T14:30:31.951Z,19.13
2022-12-14T14:31:46.566Z,18.52
2022-12-14T14:32:53.792Z,20.83
2022-12-14T14:33:56.269Z,17.35